ESNK/KRF METAR and TAF weather

Enter ICAO airport designator
Station Type Date Time Source
ESNK METAR 2018/01/19 17:20 UTC NOAA

ESNK 191720Z AUTO 00000KT 9999 SG BKN011/// OVC017/// M11/M13 Q1006 RESG


Station Type Date Time Source
ESNK Decoded METAR 2018/01/19 17:20 UTC NOAA

Kramfors Flygplats, Sweden (ESNK) 63-03N 017-46E 19M
Jan 19, 2018 - 12:20 PM EST / 2018.01.19 1720 UTC
Wind: Calm:0
Visibility: greater than 7 mile(s):0
Sky conditions: overcast
Weather: snow grains
Temperature: 12 F (-11 C)
Dew Point: 8 F (-13 C)
Relative Humidity: 85%
Pressure (altimeter): 29.71 in. Hg (1006 hPa)
ob: ESNK 191720Z AUTO 00000KT 9999 SG BKN011/// OVC017/// M11/M13 Q1006 RESG
cycle: 17

Station Type Date Time Source
ESNK TAF 2017/12/15 06:00 UTC NOAA

TAF
AMD ESNK 150654Z 1506/1521 35005KT 6000 -SN BKN016
TEMPO 1506/1521 2000 SN SG VV009


Example: see airport list